createdAt,value
2023-04-14T00:01:53.940Z,13.70
2023-04-14T00:04:20.594Z,13.70
2023-04-14T00:06:47.190Z,13.80
2023-04-14T00:09:13.715Z,13.70
2023-04-14T00:11:40.190Z,13.80
2023-04-14T00:14:06.667Z,13.90
2023-04-14T00:16:33.229Z,13.90
2023-04-14T00:18:59.967Z,13.80
2023-04-14T00:21:26.656Z,13.80
2023-04-14T00:23:53.116Z,13.80
2023-04-14T00:26:19.616Z,13.80
2023-04-14T00:28:46.087Z,13.80
2023-04-14T00:31:12.636Z,13.80
2023-04-14T00:33:39.144Z,13.80
2023-04-14T00:36:05.626Z,13.70
2023-04-14T00:38:32.107Z,13.60
2023-04-14T00:40:58.571Z,13.60
2023-04-14T00:43:25.105Z,13.70
2023-04-14T00:45:52.143Z,13.60
2023-04-14T00:48:18.637Z,13.70
2023-04-14T00:50:45.117Z,13.80
2023-04-14T00:53:11.600Z,13.90
2023-04-14T00:55:38.092Z,13.90
2023-04-14T00:58:04.584Z,13.80
2023-04-14T01:00:31.089Z,13.80
2023-04-14T01:02:57.601Z,13.70
2023-04-14T01:05:24.240Z,13.90
2023-04-14T01:07:50.782Z,13.90
2023-04-14T01:10:17.247Z,14.00
2023-04-14T01:12:43.718Z,14.10
2023-04-14T01:15:10.206Z,14.00
2023-04-14T01:17:36.732Z,13.90
2023-04-14T01:20:03.246Z,14.00
2023-04-14T01:22:29.727Z,14.00
2023-04-14T01:24:56.217Z,14.00
2023-04-14T01:27:22.696Z,13.90
2023-04-14T01:29:49.179Z,14.00
2023-04-14T01:32:15.660Z,13.80
2023-04-14T01:34:42.143Z,13.80
2023-04-14T01:37:08.647Z,13.80
2023-04-14T01:39:35.132Z,13.80
2023-04-14T01:42:01.592Z,13.90
2023-04-14T01:44:28.074Z,13.80
2023-04-14T01:46:54.557Z,13.70
2023-04-14T01:49:21.137Z,13.80
2023-04-14T01:51:47.634Z,13.70
2023-04-14T01:54:14.125Z,13.70
2023-04-14T01:56:40.615Z,13.70
2023-04-14T01:59:07.115Z,13.70
2023-04-14T02:01:33.662Z,13.70
2023-04-14T02:04:00.422Z,13.80
2023-04-14T02:06:27.020Z,13.80
2023-04-14T02:08:53.507Z,13.90
2023-04-14T02:11:19.987Z,13.90
2023-04-14T02:13:46.513Z,13.90
2023-04-14T02:16:13.019Z,13.90
2023-04-14T02:18:39.537Z,14.00
2023-04-14T02:21:06.020Z,14.00
2023-04-14T02:23:32.513Z,13.90
2023-04-14T02:25:58.991Z,13.80
2023-04-14T02:28:25.462Z,13.90
2023-04-14T02:30:51.971Z,13.80
2023-04-14T02:33:18.484Z,13.90
2023-04-14T02:35:44.949Z,13.70
2023-04-14T02:38:11.419Z,13.80
2023-04-14T02:40:37.927Z,13.90
2023-04-14T02:43:04.399Z,13.80
2023-04-14T02:45:30.886Z,13.90
2023-04-14T02:47:57.436Z,13.90
2023-04-14T02:50:23.931Z,14.00
2023-04-14T02:52:50.405Z,14.00
2023-04-14T02:55:16.885Z,14.00
2023-04-14T02:57:44.438Z,14.00
2023-04-14T03:00:10.909Z,14.00
2023-04-14T03:02:37.472Z,14.00
2023-04-14T03:05:04.027Z,14.00
2023-04-14T03:07:30.495Z,14.00
2023-04-14T03:09:56.998Z,14.00
2023-04-14T03:12:23.456Z,14.00
2023-04-14T03:17:40.451Z,14.00
2023-04-14T03:20:07.058Z,14.00
2023-04-14T03:22:33.582Z,14.00
2023-04-14T03:25:00.122Z,14.00
2023-04-14T03:27:26.624Z,14.00
2023-04-14T03:29:53.129Z,13.90
2023-04-14T03:32:19.663Z,14.00
2023-04-14T03:34:46.162Z,13.90
2023-04-14T03:37:12.646Z,13.90
2023-04-14T03:39:39.108Z,14.10
2023-04-14T03:42:05.616Z,14.10
2023-04-14T03:44:32.095Z,14.10
2023-04-14T03:46:58.694Z,14.10
2023-04-14T03:49:25.567Z,14.00
2023-04-14T03:51:52.044Z,14.20
2023-04-14T03:54:18.537Z,14.10
2023-04-14T03:56:45.002Z,14.00
2023-04-14T03:59:11.479Z,14.00
2023-04-14T04:01:37.983Z,14.20
2023-04-14T04:04:04.643Z,14.10
2023-04-14T04:06:31.252Z,14.00
2023-04-14T04:08:57.769Z,14.00
2023-04-14T04:11:24.266Z,14.00
2023-04-14T04:13:50.744Z,14.00
2023-04-14T04:16:17.268Z,13.90
2023-04-14T04:18:43.774Z,13.90
2023-04-14T04:21:10.248Z,13.90
2023-04-14T04:23:36.731Z,13.90
2023-04-14T04:26:04.343Z,13.90
2023-04-14T04:28:30.841Z,14.10
2023-04-14T04:30:57.304Z,14.10
2023-04-14T04:33:23.817Z,14.00
2023-04-14T04:35:50.315Z,14.00
2023-04-14T04:38:16.782Z,14.10
2023-04-14T04:40:43.296Z,14.10
2023-04-14T04:43:09.772Z,14.00
2023-04-14T04:45:36.248Z,14.00
2023-04-14T04:48:02.771Z,14.00
2023-04-14T04:50:29.269Z,14.00
2023-04-14T04:52:55.755Z,14.10
2023-04-14T04:55:22.233Z,14.10
2023-04-14T04:57:48.720Z,14.00
2023-04-14T05:00:15.196Z,14.10
2023-04-14T05:02:41.807Z,14.10
2023-04-14T05:05:08.341Z,14.10
2023-04-14T05:07:34.830Z,14.10
2023-04-14T05:10:01.365Z,14.10
2023-04-14T05:12:27.913Z,14.10
2023-04-14T05:14:54.391Z,14.20
2023-04-14T05:17:20.876Z,14.10
2023-04-14T05:19:47.374Z,14.00
2023-04-14T05:22:13.849Z,14.00
2023-04-14T05:24:40.322Z,14.10
2023-04-14T05:27:14.364Z,14.10
2023-04-14T05:29:41.354Z,14.20
2023-04-14T05:32:07.847Z,14.20
2023-04-14T05:34:34.315Z,14.10
2023-04-14T05:37:00.794Z,14.00
2023-04-14T05:39:27.275Z,14.00
2023-04-14T05:41:53.758Z,14.00
2023-04-14T05:44:20.238Z,14.00
2023-04-14T05:46:46.835Z,14.00
2023-04-14T05:49:13.338Z,14.00
2023-04-14T05:51:39.832Z,13.90
2023-04-14T05:54:06.517Z,13.90
2023-04-14T05:56:32.983Z,13.70
2023-04-14T05:58:59.597Z,13.80
2023-04-14T06:01:26.100Z,13.70
2023-04-14T06:03:52.837Z,13.70
2023-04-14T06:06:19.645Z,13.90
2023-04-14T06:08:46.123Z,13.90
2023-04-14T06:11:12.607Z,14.00
2023-04-14T06:13:39.089Z,14.10
2023-04-14T06:16:05.642Z,14.10
2023-04-14T06:18:32.131Z,14.20
2023-04-14T06:20:58.602Z,14.30
2023-04-14T06:23:25.089Z,14.20
2023-04-14T06:25:51.550Z,14.20
2023-04-14T06:28:18.012Z,14.20
2023-04-14T06:30:44.491Z,14.00
2023-04-14T06:33:11.061Z,14.00
2023-04-14T06:35:37.573Z,13.90
2023-04-14T06:38:04.060Z,13.90
2023-04-14T06:40:30.523Z,13.70
2023-04-14T06:42:56.996Z,13.80
2023-04-14T06:45:23.457Z,13.80
2023-04-14T06:47:50.027Z,13.90
2023-04-14T06:50:16.564Z,13.80
2023-04-14T06:52:43.071Z,13.90
2023-04-14T06:55:09.540Z,13.80
2023-04-14T06:57:36.112Z,13.70
2023-04-14T07:00:02.604Z,13.90
2023-04-14T07:02:29.154Z,13.80
2023-04-14T07:04:55.752Z,13.90
2023-04-14T07:07:22.277Z,13.80
2023-04-14T07:09:48.808Z,13.90
2023-04-14T07:12:15.341Z,13.80
2023-04-14T07:14:41.827Z,13.80
2023-04-14T07:17:08.309Z,13.70
2023-04-14T07:19:34.798Z,13.70
2023-04-14T07:22:01.265Z,13.80
2023-04-14T07:24:27.744Z,13.80
2023-04-14T07:26:54.234Z,13.80
2023-04-14T07:29:20.716Z,13.80
2023-04-14T07:31:47.333Z,13.80
2023-04-14T07:34:13.879Z,14.00
2023-04-14T07:36:40.355Z,14.00
2023-04-14T07:39:06.859Z,13.70
2023-04-14T07:41:33.337Z,13.90
2023-04-14T07:44:00.012Z,14.00
2023-04-14T07:46:26.728Z,14.00
2023-04-14T07:48:53.213Z,14.00
2023-04-14T07:51:19.692Z,13.90
2023-04-14T07:53:46.180Z,13.90
2023-04-14T07:56:12.662Z,13.80
2023-04-14T07:58:39.152Z,14.00
2023-04-14T08:01:05.641Z,14.00
2023-04-14T08:03:32.229Z,14.00
2023-04-14T08:05:58.911Z,14.10
2023-04-14T08:08:25.387Z,14.00
2023-04-14T08:10:52.535Z,14.10
2023-04-14T08:13:19.030Z,14.20
2023-04-14T08:15:45.570Z,14.20
2023-04-14T08:18:12.103Z,14.30
2023-04-14T08:20:38.592Z,14.20
2023-04-14T08:23:05.067Z,14.30
2023-04-14T08:25:31.563Z,14.30
2023-04-14T08:27:58.073Z,14.30
2023-04-14T08:30:24.606Z,14.30
2023-04-14T08:32:51.253Z,14.30
2023-04-14T08:35:35.696Z,14.30
2023-04-14T08:38:04.257Z,14.20
2023-04-14T08:40:30.753Z,14.30
2023-04-14T08:42:57.211Z,14.40
2023-04-14T08:45:23.742Z,14.50
2023-04-14T08:47:50.296Z,14.40
2023-04-14T08:50:16.859Z,14.40
2023-04-14T08:52:43.357Z,14.40
2023-04-14T08:55:09.939Z,14.50
2023-04-14T08:57:36.416Z,14.50
2023-04-14T09:00:02.892Z,14.60
2023-04-14T09:02:29.454Z,14.60
2023-04-14T09:04:56.072Z,14.60
2023-04-14T09:07:22.649Z,14.60
2023-04-14T09:09:49.145Z,14.50
2023-04-14T09:12:15.614Z,14.70
2023-04-14T09:14:42.083Z,14.70
2023-04-14T09:17:08.589Z,14.70
2023-04-14T09:19:35.066Z,14.60
2023-04-14T09:22:01.567Z,14.70
2023-04-14T09:24:30.009Z,14.70
2023-04-14T09:26:58.421Z,14.80
2023-04-14T09:29:24.898Z,14.70
2023-04-14T09:31:51.473Z,14.70
2023-04-14T09:34:18.036Z,14.70
2023-04-14T09:36:44.594Z,14.70
2023-04-14T09:39:11.077Z,14.80
2023-04-14T09:41:37.562Z,14.80
2023-04-14T09:44:04.155Z,14.80
2023-04-14T09:46:30.689Z,14.90
2023-04-14T09:48:57.160Z,14.80
2023-04-14T09:51:23.645Z,14.80
2023-04-14T09:53:50.117Z,14.80
2023-04-14T09:56:16.623Z,14.90
2023-04-14T09:58:43.110Z,14.90
2023-04-14T10:01:09.638Z,14.90
2023-04-14T10:03:40.675Z,14.80
2023-04-14T10:06:07.200Z,14.90
2023-04-14T10:08:34.583Z,14.90
2023-04-14T10:11:01.066Z,14.90
2023-04-14T10:13:27.574Z,14.90
2023-04-14T10:15:54.142Z,14.90
2023-04-14T10:18:20.648Z,14.90
2023-04-14T10:20:47.116Z,14.90
2023-04-14T10:23:13.580Z,14.90
2023-04-14T10:25:40.087Z,14.90
2023-04-14T10:28:06.579Z,14.90
2023-04-14T10:30:33.068Z,14.90
2023-04-14T10:32:59.573Z,14.90
2023-04-14T10:35:26.068Z,14.90
2023-04-14T10:37:52.553Z,14.90
2023-04-14T10:40:19.083Z,15.00
2023-04-14T10:42:45.633Z,15.00
2023-04-14T10:45:12.122Z,15.00
2023-04-14T10:47:38.656Z,14.90
2023-04-14T10:50:05.142Z,14.90
2023-04-14T10:52:31.616Z,15.00
2023-04-14T10:54:58.095Z,15.10
2023-04-14T10:57:24.634Z,15.10
2023-04-14T10:59:51.130Z,15.00
2023-04-14T11:02:17.758Z,15.00
2023-04-14T11:04:44.261Z,15.10
2023-04-14T11:07:10.731Z,15.20
2023-04-14T11:09:37.221Z,15.20
2023-04-14T11:12:03.760Z,15.20
2023-04-14T11:14:30.228Z,15.20
2023-04-14T11:17:04.155Z,15.20
2023-04-14T11:19:31.309Z,15.20
2023-04-14T11:21:57.792Z,15.20
2023-04-14T11:24:24.259Z,15.20
2023-04-14T11:26:50.726Z,15.30
2023-04-14T11:29:17.207Z,15.30
2023-04-14T11:31:43.725Z,15.30
2023-04-14T11:34:10.255Z,15.30
2023-04-14T11:36:36.730Z,15.30
2023-04-14T11:39:03.358Z,15.30
2023-04-14T11:41:30.021Z,15.30
2023-04-14T11:43:56.504Z,15.30
2023-04-14T11:46:23.005Z,15.40
2023-04-14T11:48:49.506Z,15.30
2023-04-14T11:51:15.980Z,15.30
2023-04-14T11:53:42.448Z,15.30
2023-04-14T11:56:08.904Z,15.30
2023-04-14T11:58:35.383Z,15.30
2023-04-14T12:01:01.853Z,15.40
2023-04-14T12:03:29.076Z,15.40
2023-04-14T12:05:56.097Z,15.40
2023-04-14T12:08:23.915Z,15.40
2023-04-14T12:10:52.717Z,15.30
2023-04-14T12:13:19.193Z,15.30
2023-04-14T12:15:45.702Z,15.40
2023-04-14T12:18:12.329Z,15.40
2023-04-14T12:20:38.833Z,15.40
2023-04-14T12:23:05.328Z,15.40
2023-04-14T12:25:31.830Z,15.40
2023-04-14T12:27:58.308Z,15.40
2023-04-14T12:30:24.793Z,15.30
2023-04-14T12:32:51.318Z,15.40
2023-04-14T12:35:17.844Z,15.40
2023-04-14T12:37:44.329Z,15.40
2023-04-14T12:40:12.452Z,15.50
2023-04-14T12:42:39.086Z,15.50
2023-04-14T12:45:05.557Z,15.40
2023-04-14T12:47:32.049Z,15.40
2023-04-14T12:49:58.524Z,15.40
2023-04-14T12:52:25.025Z,15.40
2023-04-14T12:54:51.527Z,15.40
2023-04-14T12:57:17.990Z,15.40
2023-04-14T12:59:44.481Z,15.40
2023-04-14T13:02:11.069Z,15.40
2023-04-14T13:04:37.789Z,15.40
2023-04-14T13:07:04.259Z,15.50
2023-04-14T13:09:30.743Z,15.50
2023-04-14T13:11:57.222Z,15.50
2023-04-14T13:14:23.710Z,15.50
2023-04-14T13:16:50.202Z,15.40
2023-04-14T13:19:16.779Z,15.40
2023-04-14T13:21:43.256Z,15.50
2023-04-14T13:24:09.747Z,15.50
2023-04-14T13:26:36.225Z,15.50
2023-04-14T13:29:03.090Z,15.50
2023-04-14T13:31:29.892Z,15.50
2023-04-14T13:33:56.462Z,15.50
2023-04-14T13:36:22.958Z,15.40
2023-04-14T13:38:49.433Z,15.50
2023-04-14T13:41:15.885Z,15.50
2023-04-14T13:43:42.359Z,15.50
2023-04-14T13:46:08.982Z,15.50
2023-04-14T13:48:35.542Z,15.50
2023-04-14T13:51:02.053Z,15.50
2023-04-14T13:53:28.553Z,15.50
2023-04-14T13:55:55.027Z,15.50
2023-04-14T13:58:21.487Z,15.50
2023-04-14T14:00:47.963Z,15.50
2023-04-14T14:03:14.532Z,15.50
2023-04-14T14:05:41.173Z,15.50
2023-04-14T14:08:07.644Z,15.50
2023-04-14T14:10:34.145Z,15.50
2023-04-14T14:13:00.633Z,15.50
2023-04-14T14:15:27.213Z,15.60
2023-04-14T14:17:53.731Z,15.50
2023-04-14T14:20:22.833Z,15.50
2023-04-14T14:22:49.316Z,15.50
2023-04-14T14:25:20.366Z,15.50
2023-04-14T14:27:47.841Z,15.50
2023-04-14T14:30:14.336Z,15.50
2023-04-14T14:32:40.823Z,15.50
2023-04-14T14:35:07.305Z,15.50
2023-04-14T14:37:33.826Z,15.50
2023-04-14T14:40:00.333Z,15.50
2023-04-14T14:42:26.838Z,15.60
2023-04-14T14:44:53.375Z,15.60
2023-04-14T14:47:19.918Z,15.50
2023-04-14T14:49:58.945Z,15.50
2023-04-14T14:52:32.618Z,15.60
2023-04-14T14:54:59.150Z,15.60
2023-04-14T14:57:25.646Z,15.60
2023-04-14T14:59:52.119Z,15.60
2023-04-14T15:02:18.636Z,15.60
2023-04-14T15:04:45.237Z,15.60
2023-04-14T15:07:11.752Z,15.60
2023-04-14T15:09:38.231Z,15.60
2023-04-14T15:12:04.716Z,15.50
2023-04-14T15:14:31.204Z,15.60
2023-04-14T15:16:57.693Z,15.60
2023-04-14T15:19:24.212Z,15.60
2023-04-14T15:21:50.681Z,15.50
2023-04-14T15:24:17.143Z,15.60
2023-04-14T15:26:43.640Z,15.60
2023-04-14T15:29:10.127Z,15.60
2023-04-14T15:31:36.621Z,15.60
2023-04-14T15:34:03.196Z,15.60
2023-04-14T15:36:29.812Z,15.60
2023-04-14T15:38:56.287Z,15.50
2023-04-14T15:41:22.852Z,15.60
2023-04-14T15:43:49.322Z,15.60
2023-04-14T15:46:15.815Z,15.60
2023-04-14T15:48:42.305Z,15.60
2023-04-14T15:51:08.778Z,15.60
2023-04-14T15:53:36.460Z,15.60
2023-04-14T15:56:02.931Z,15.60
2023-04-14T15:58:29.429Z,15.60
2023-04-14T16:00:55.959Z,15.60
2023-04-14T16:03:22.590Z,15.60
2023-04-14T16:05:49.148Z,15.60
2023-04-14T16:08:15.652Z,15.60
2023-04-14T16:10:42.136Z,15.70
2023-04-14T16:13:08.554Z,15.60
2023-04-14T16:15:35.045Z,15.60
2023-04-14T16:18:01.592Z,15.70
2023-04-14T16:20:28.087Z,15.60
2023-04-14T16:22:54.590Z,15.60
2023-04-14T16:25:22.147Z,15.60
2023-04-14T16:27:48.704Z,15.60
2023-04-14T16:30:15.185Z,15.60
2023-04-14T16:32:41.669Z,15.60
2023-04-14T16:35:08.180Z,15.70
2023-04-14T16:37:34.665Z,15.70
2023-04-14T16:40:01.299Z,15.70
2023-04-14T16:42:27.834Z,15.70
2023-04-14T16:44:54.320Z,15.70
2023-04-14T16:47:20.870Z,15.60
2023-04-14T16:49:47.390Z,15.70
2023-04-14T16:52:13.881Z,15.60
2023-04-14T16:54:40.331Z,15.60
2023-04-14T16:57:11.000Z,15.70
2023-04-14T16:59:37.490Z,15.70
2023-04-14T17:02:04.124Z,15.60
2023-04-14T17:04:30.919Z,15.70
2023-04-14T17:06:57.565Z,15.70
2023-04-14T17:09:24.052Z,15.70
2023-04-14T17:11:50.525Z,15.70
2023-04-14T17:14:17.014Z,15.70
2023-04-14T17:16:43.537Z,15.70
2023-04-14T17:19:10.062Z,15.70
2023-04-14T17:21:36.542Z,15.70
2023-04-14T17:24:03.185Z,15.70
2023-04-14T17:26:29.762Z,15.70
2023-04-14T17:28:56.240Z,15.70
2023-04-14T17:31:22.762Z,15.70
2023-04-14T17:33:49.265Z,15.70
2023-04-14T17:36:15.766Z,15.70
2023-04-14T17:38:42.252Z,15.70
2023-04-14T17:41:09.523Z,15.70
2023-04-14T17:43:37.408Z,15.70
2023-04-14T17:46:03.920Z,15.70
2023-04-14T17:48:30.381Z,15.70
2023-04-14T17:50:56.860Z,15.70
2023-04-14T17:53:23.322Z,15.70
2023-04-14T17:55:49.805Z,15.70
2023-04-14T17:58:16.293Z,15.70
2023-04-14T18:00:42.762Z,15.70
2023-04-14T18:03:09.339Z,15.70
2023-04-14T18:05:35.886Z,15.70
2023-04-14T18:08:02.350Z,15.60
2023-04-14T18:10:28.832Z,15.70
2023-04-14T18:12:55.289Z,15.70
2023-04-14T18:15:21.762Z,15.70
2023-04-14T18:17:48.258Z,15.60
2023-04-14T18:20:14.750Z,15.70
2023-04-14T18:22:41.229Z,15.60
2023-04-14T18:25:07.695Z,15.70
2023-04-14T18:30:03.551Z,15.60
2023-04-14T18:32:30.074Z,15.70
2023-04-14T18:34:56.611Z,15.60
2023-04-14T18:37:23.071Z,15.70
2023-04-14T18:39:49.541Z,15.70
2023-04-14T18:42:16.045Z,15.70
2023-04-14T18:44:42.516Z,15.70
2023-04-14T18:47:08.995Z,15.60
2023-04-14T18:49:35.465Z,15.70
2023-04-14T18:52:05.042Z,15.60
2023-04-14T18:54:31.506Z,15.60
2023-04-14T18:56:57.982Z,15.60
2023-04-14T18:59:24.520Z,15.70
2023-04-14T19:01:51.075Z,15.60
2023-04-14T19:04:17.695Z,15.60
2023-04-14T19:06:44.197Z,15.60
2023-04-14T19:09:10.678Z,15.50
2023-04-14T19:11:41.089Z,15.60
2023-04-14T19:14:07.554Z,15.50
2023-04-14T19:16:34.077Z,15.60
2023-04-14T19:19:00.684Z,15.60
2023-04-14T19:21:27.516Z,15.60
2023-04-14T19:23:53.990Z,15.60
2023-04-14T19:26:20.456Z,15.60
2023-04-14T19:28:46.920Z,15.60
2023-04-14T19:31:13.401Z,15.60
2023-04-14T19:33:39.908Z,15.60
2023-04-14T19:36:06.419Z,15.60
2023-04-14T19:38:32.900Z,15.50
2023-04-14T19:40:59.383Z,15.50
2023-04-14T19:43:25.850Z,15.50
2023-04-14T19:45:52.339Z,15.60
2023-04-14T19:48:23.518Z,15.60
2023-04-14T19:50:50.672Z,15.60
2023-04-14T19:53:17.144Z,15.60
2023-04-14T19:55:43.611Z,15.60
2023-04-14T19:58:10.104Z,15.60
2023-04-14T20:00:36.574Z,15.50
2023-04-14T20:03:03.132Z,15.50
2023-04-14T20:05:29.666Z,15.60
2023-04-14T20:07:56.129Z,15.60
2023-04-14T20:10:22.586Z,15.50
2023-04-14T20:12:49.067Z,15.50
2023-04-14T20:15:17.074Z,15.60
2023-04-14T20:17:43.621Z,15.60
2023-04-14T20:20:10.150Z,15.50
2023-04-14T20:22:36.624Z,15.50
2023-04-14T20:25:03.100Z,15.50
2023-04-14T20:27:35.195Z,15.50
2023-04-14T20:30:01.727Z,15.60
2023-04-14T20:32:28.254Z,15.50
2023-04-14T20:34:54.750Z,15.50
2023-04-14T20:37:21.230Z,15.50
2023-04-14T20:39:47.729Z,15.50
2023-04-14T20:42:14.216Z,15.50
2023-04-14T20:44:40.680Z,15.50
2023-04-14T20:47:07.176Z,15.50
2023-04-14T20:49:33.637Z,15.50
2023-04-14T20:52:05.175Z,15.50
2023-04-14T20:54:31.637Z,15.50
2023-04-14T20:56:58.099Z,15.50
2023-04-14T20:59:24.573Z,15.50
2023-04-14T21:01:51.133Z,15.50
2023-04-14T21:04:17.829Z,15.50
2023-04-14T21:06:44.409Z,15.50
2023-04-14T21:09:10.887Z,15.50
2023-04-14T21:11:37.372Z,15.50
2023-04-14T21:15:40.489Z,15.50
2023-04-14T21:16:50.337Z,15.50
2023-04-14T21:19:16.851Z,15.50
2023-04-14T21:21:43.331Z,15.50
2023-04-14T21:24:09.822Z,15.40
2023-04-14T21:26:36.288Z,15.40
2023-04-14T21:29:03.025Z,15.40
2023-04-14T21:31:29.665Z,15.40
2023-04-14T21:33:56.183Z,15.40
2023-04-14T21:36:22.644Z,15.40
2023-04-14T21:38:49.119Z,15.50
2023-04-14T21:41:15.581Z,15.50
2023-04-14T21:43:42.048Z,15.40
2023-04-14T21:46:08.545Z,15.40
2023-04-14T21:48:35.213Z,15.40
2023-04-14T21:51:01.703Z,15.40
2023-04-14T21:53:28.185Z,15.40
2023-04-14T21:55:58.824Z,15.40
2023-04-14T21:58:36.019Z,15.40
2023-04-14T22:01:02.554Z,15.40
2023-04-14T22:03:29.279Z,15.40
2023-04-14T22:05:55.805Z,15.40
2023-04-14T22:08:22.291Z,15.40
2023-04-14T22:10:48.758Z,15.40
2023-04-14T22:13:15.251Z,15.40
2023-04-14T22:15:41.706Z,15.40
2023-04-14T22:18:08.196Z,15.40
2023-04-14T22:20:34.676Z,15.40
2023-04-14T22:23:01.172Z,15.40
2023-04-14T22:25:27.664Z,15.30
2023-04-14T22:27:54.148Z,15.30
2023-04-14T22:30:20.614Z,15.30
2023-04-14T22:32:47.159Z,15.40
2023-04-14T22:35:13.676Z,15.40
2023-04-14T22:37:40.141Z,15.40
2023-04-14T22:40:06.623Z,15.40
2023-04-14T22:42:33.095Z,15.40
2023-04-14T22:44:59.580Z,15.30
2023-04-14T22:47:26.076Z,15.40
2023-04-14T22:49:52.562Z,15.40
2023-04-14T22:52:19.030Z,15.30
2023-04-14T22:54:45.508Z,15.40
2023-04-14T22:57:11.984Z,15.40
2023-04-14T22:59:38.457Z,15.40
2023-04-14T23:02:05.052Z,15.30
2023-04-14T23:04:35.345Z,15.30
2023-04-14T23:07:01.935Z,15.30
2023-04-14T23:09:28.439Z,15.30
2023-04-14T23:11:54.913Z,15.30
2023-04-14T23:14:21.390Z,15.30
2023-04-14T23:16:47.874Z,15.30
2023-04-14T23:19:14.353Z,15.30
2023-04-14T23:21:40.819Z,15.30
2023-04-14T23:24:07.321Z,15.30
2023-04-14T23:26:33.825Z,15.30
2023-04-14T23:29:00.653Z,15.30
2023-04-14T23:31:27.233Z,15.30
2023-04-14T23:33:53.742Z,15.30
2023-04-14T23:36:20.212Z,15.30
2023-04-14T23:38:46.697Z,15.30
2023-04-14T23:41:13.160Z,15.40
2023-04-14T23:43:39.653Z,15.30
2023-04-14T23:46:06.128Z,15.30
2023-04-14T23:48:32.658Z,15.30
2023-04-14T23:51:14.732Z,15.30
2023-04-14T23:53:44.758Z,15.30
2023-04-14T23:56:11.236Z,15.30
2023-04-14T23:58:37.715Z,15.30
